This is the latest recevied weather packets stored in our database for station/object DK8HC-WX. If no packets are shown the sender has not sent any weather packets the latest 10 day(s).
| Time | Temp. | Humidity | Pressure | Rain* | Wind** | Luminosity | Snow |
|---|---|---|---|---|---|---|---|
| 1777353079 | 8.89° C | 100% | 1025.3 hPa | - | - | - | - |
| 1777352481 | 8.33° C | 100% | 1025.1 hPa | - | - | - | - |
| 1777351879 | 8.33° C | 100% | 1024.9 hPa | - | - | - | - |
| 1777351279 | 7.78° C | 100% | 1024.7 hPa | - | - | - | - |
| 1777350679 | 6.67° C | 100% | 1024.3 hPa | - | - | - | - |
| 1777350079 | 5.56° C | 100% | 1024.3 hPa | - | - | - | - |
| 1777349479 | 5.56° C | 100% | 1024.3 hPa | - | - | - | - |
| 1777348879 | 5° C | 100% | 1024.2 hPa | - | - | - | - |
| 1777348279 | 5° C | 100% | 1024.1 hPa | - | - | - | - |
| 1777347679 | 5° C | 100% | 1024.2 hPa | - | - | - | - |
| 1777347079 | 5° C | 100% | 1024.2 hPa | - | - | - | - |
| 1777346479 | 5° C | 100% | 1024.3 hPa | - | - | - | - |
| 1777345879 | 5° C | 100% | 1024.3 hPa | - | - | - | - |
| 1777345279 | 5.56° C | 100% | 1024.3 hPa | - | - | - | - |
| 1777344679 | 5.56° C | 100% | 1024.2 hPa | - | - | - | - |
| 1777344079 | 5.56° C | 100% | 1024.3 hPa | - | - | - | - |
| 1777343479 | 5.56° C | 100% | 1024.3 hPa | - | - | - | - |
| 1777342879 | 5.56° C | 100% | 1024.2 hPa | - | - | - | - |
| 1777342279 | 6.11° C | 100% | 1024.2 hPa | - | - | - | - |
| 1777341679 | 6.11° C | 100% | 1024.3 hPa | - | - | - | - |
| 1777341079 | 6.11° C | 100% | 1024.3 hPa | - | - | - | - |
| 1777340479 | 6.11° C | 100% | 1024.2 hPa | - | - | - | - |
| 1777339879 | 6.11° C | 100% | 1024.3 hPa | - | - | - | - |
| 1777339279 | 6.11° C | 100% | 1024.2 hPa | - | - | - | - |
| 1777338679 | 6.67° C | 100% | 1024.2 hPa | - | - | - | - |
* Rain since midnight (hover to see other rain measurements)
** Current wind speed in m/s (hover to see current wind gust speed)